Terminal Aerodrome Forecast
Issued by NWS

Home | Current Version | Previous Version | Text Only | Print | Product List | Glossary On
Versions: 1 2 3 4 5 6 7 8 9 10 11 12 13 14 15 16 17 18 19 20
690
FTUS45 KPIH 190046 AAA
TAFSUN
TAF AMD
KSUN 190046Z 1901/2006 28006KT P6SM VCSH SCT050 BKN070 OVC120
     FM190400 33006KT P6SM SCT090
     FM191400 VRB06KT P6SM VCSH SCT025 BKN050 OVC070
     FM192000 27010G20KT P6SM VCSH SCT035 BKN060 OVC090
      AMD LTD TO CLD VIS AND WIND 1906/1914=

USA.gov is the U.S. government's official web portal to all federal, state and local government web resources and services.